createdAt,value
2023-04-27T00:01:55.883Z,100408.28
2023-04-27T00:04:23.820Z,100410.78
2023-04-27T00:06:52.325Z,100410.75
2023-04-27T00:09:20.188Z,100407.28
2023-04-27T00:11:48.125Z,100408.94
2023-04-27T00:14:15.727Z,100406.38
2023-04-27T00:16:43.723Z,100405.53
2023-04-27T00:19:11.457Z,100405.44
2023-04-27T00:21:39.619Z,100414.78
2023-04-27T00:24:07.684Z,100402.72
2023-04-27T00:26:35.539Z,100403.56
2023-04-27T00:29:03.690Z,100405.22
2023-04-27T00:31:31.653Z,100407.78
2023-04-27T00:33:59.283Z,100426.56
2023-04-27T00:36:27.675Z,100427.47
2023-04-27T00:38:55.342Z,100430.91
2023-04-27T00:41:23.833Z,100423.22
2023-04-27T00:43:51.565Z,100423.19
2023-04-27T00:46:19.867Z,100427.44
2023-04-27T00:48:47.847Z,100435.09
2023-04-27T00:51:15.873Z,100430.00
2023-04-27T00:53:44.380Z,100435.94
2023-04-27T00:56:13.737Z,100434.28
2023-04-27T00:58:41.396Z,100430.91
2023-04-27T01:01:11.056Z,100440.28
2023-04-27T01:03:38.836Z,100435.91
2023-04-27T01:06:07.652Z,100434.97
2023-04-27T01:08:36.671Z,100439.22
2023-04-27T01:11:04.551Z,100434.94
2023-04-27T01:13:32.453Z,100446.88
2023-04-27T01:16:00.381Z,100441.72
2023-04-27T01:18:28.029Z,100446.72
2023-04-27T01:20:58.189Z,100438.97
2023-04-27T01:23:26.461Z,100442.38
2023-04-27T01:25:54.443Z,100443.22
2023-04-27T01:28:22.110Z,100452.56
2023-04-27T01:30:50.140Z,100449.91
2023-04-27T01:33:18.461Z,100448.19
2023-04-27T01:35:49.379Z,100445.78
2023-04-27T01:38:17.835Z,100455.09
2023-04-27T01:40:45.792Z,100458.50
2023-04-27T01:43:14.200Z,100450.69
2023-04-27T01:45:42.426Z,100448.00
2023-04-27T01:48:10.233Z,100459.94
2023-04-27T01:50:38.268Z,100456.44
2023-04-27T01:53:07.553Z,100455.56
2023-04-27T01:55:35.662Z,100463.25
2023-04-27T01:58:03.608Z,100458.13
2023-04-27T02:00:32.530Z,100460.63
2023-04-27T02:03:01.362Z,100457.19
2023-04-27T02:05:29.679Z,100457.19
2023-04-27T02:07:57.398Z,100452.00
2023-04-27T02:10:25.389Z,100458.78
2023-04-27T02:12:57.221Z,100463.88
2023-04-27T02:15:25.313Z,100463.91
2023-04-27T02:17:52.941Z,100456.94
2023-04-27T02:20:20.995Z,100468.84
2023-04-27T02:22:48.653Z,100462.78
2023-04-27T02:25:16.674Z,100459.41
2023-04-27T02:27:44.308Z,100460.25
2023-04-27T02:30:13.170Z,100455.94
2023-04-27T02:32:41.725Z,100463.72
2023-04-27T02:35:10.117Z,100464.50
2023-04-27T02:37:37.841Z,100458.50
2023-04-27T02:40:09.404Z,100462.84
2023-04-27T02:42:39.027Z,100463.78
2023-04-27T02:45:08.365Z,100464.50
2023-04-27T02:47:37.606Z,100467.19
2023-04-27T02:50:06.030Z,100470.53
2023-04-27T02:52:35.716Z,100470.63
2023-04-27T02:55:03.798Z,100473.00
2023-04-27T02:57:31.809Z,100467.91
2023-04-27T02:59:59.802Z,100479.03
2023-04-27T03:02:27.478Z,100477.25
2023-04-27T03:04:56.154Z,100475.63
2023-04-27T03:07:24.984Z,100473.91
2023-04-27T03:09:52.962Z,100483.44
2023-04-27T03:12:20.660Z,100487.63
2023-04-27T03:14:48.662Z,100492.69
2023-04-27T03:17:16.332Z,100489.25
2023-04-27T03:19:44.219Z,100491.91
2023-04-27T03:22:12.249Z,100488.50
2023-04-27T03:24:40.200Z,100496.47
2023-04-27T03:27:07.819Z,100494.00
2023-04-27T03:29:35.955Z,100494.00
2023-04-27T03:32:06.503Z,100494.94
2023-04-27T03:34:34.536Z,100494.97
2023-04-27T03:37:03.010Z,100493.34
2023-04-27T03:39:31.128Z,100496.84
2023-04-27T03:41:59.220Z,100495.25
2023-04-27T03:44:27.161Z,100490.31
2023-04-27T03:46:54.970Z,100495.47
2023-04-27T03:49:23.326Z,100493.75
2023-04-27T03:51:51.761Z,100492.19
2023-04-27T03:54:19.670Z,100495.00
2023-04-27T03:56:47.842Z,100494.28
2023-04-27T03:59:16.729Z,100500.25
2023-04-27T04:01:50.027Z,100504.63
2023-04-27T04:04:18.508Z,100509.00
2023-04-27T04:06:46.330Z,100501.41
2023-04-27T04:09:15.359Z,100489.44
2023-04-27T04:11:44.330Z,100511.06
2023-04-27T04:14:16.356Z,100512.97
2023-04-27T04:16:44.012Z,100519.06
2023-04-27T04:19:12.155Z,100519.22
2023-04-27T04:21:40.078Z,100521.03
2023-04-27T04:24:10.364Z,100517.34
2023-04-27T04:26:39.455Z,100519.94
2023-04-27T04:29:09.528Z,100524.97
2023-04-27T04:31:38.883Z,100509.81
2023-04-27T04:34:06.974Z,100532.59
2023-04-27T04:36:34.646Z,100531.31
2023-04-27T04:39:04.007Z,100537.72
2023-04-27T04:41:33.413Z,100535.34
2023-04-27T04:44:01.770Z,100541.53
2023-04-27T04:46:30.671Z,100539.69
2023-04-27T04:48:58.628Z,100544.00
2023-04-27T04:51:26.365Z,100537.97
2023-04-27T04:53:54.314Z,100545.56
2023-04-27T04:56:24.290Z,100536.00
2023-04-27T04:58:54.711Z,100531.00
2023-04-27T05:01:22.417Z,100534.50
2023-04-27T05:03:50.447Z,100539.81
2023-04-27T05:06:18.170Z,100536.81
2023-04-27T05:08:46.110Z,100536.91
2023-04-27T05:11:13.900Z,100542.66
2023-04-27T05:13:41.892Z,100544.88
2023-04-27T05:16:09.765Z,100537.53
2023-04-27T05:18:37.743Z,100539.75
2023-04-27T05:21:05.504Z,100544.28
2023-04-27T05:23:33.354Z,100540.44
2023-04-27T05:26:01.043Z,100547.00
2023-04-27T05:28:29.039Z,100550.41
2023-04-27T05:30:56.635Z,100544.53
2023-04-27T05:33:24.579Z,100555.56
2023-04-27T05:35:52.175Z,100548.66
2023-04-27T05:38:20.168Z,100554.88
2023-04-27T05:40:48.180Z,100547.78
2023-04-27T05:43:16.087Z,100550.09
2023-04-27T05:45:43.902Z,100531.63
2023-04-27T05:48:12.212Z,100544.16
2023-04-27T05:50:39.988Z,100542.88
2023-04-27T05:53:08.153Z,100553.19
2023-04-27T05:55:35.860Z,100550.97
2023-04-27T05:58:08.426Z,100549.09
2023-04-27T06:00:37.037Z,100556.38
2023-04-27T06:03:05.204Z,100555.81
2023-04-27T06:05:34.385Z,100554.69
2023-04-27T06:08:02.796Z,100558.56
2023-04-27T06:10:30.467Z,100561.69
2023-04-27T06:12:58.872Z,100564.03
2023-04-27T06:15:26.533Z,100557.78
2023-04-27T06:17:54.640Z,100568.34
2023-04-27T06:20:22.439Z,100557.91
2023-04-27T06:22:50.669Z,100565.56
2023-04-27T06:25:18.282Z,100558.81
2023-04-27T06:27:46.521Z,100566.25
2023-04-27T06:30:14.354Z,100554.22
2023-04-27T06:32:42.255Z,100565.97
2023-04-27T06:35:10.626Z,100571.19
2023-04-27T06:37:39.151Z,100565.00
2023-04-27T06:40:08.185Z,100563.50
2023-04-27T06:42:36.330Z,100574.31
2023-04-27T06:45:05.651Z,100569.28
2023-04-27T06:47:33.850Z,100577.91
2023-04-27T06:50:01.589Z,100571.81
2023-04-27T06:52:31.979Z,100565.72
2023-04-27T06:54:59.705Z,100579.44
2023-04-27T06:57:28.039Z,100573.38
2023-04-27T06:59:55.718Z,100574.13
2023-04-27T07:02:25.502Z,100577.19
2023-04-27T07:04:53.681Z,100571.19
2023-04-27T07:07:21.686Z,100579.81
2023-04-27T07:09:49.337Z,100583.44
2023-04-27T07:12:17.281Z,100574.38
2023-04-27T07:14:44.945Z,100577.94
2023-04-27T07:17:12.836Z,100587.97
2023-04-27T07:19:40.543Z,100582.72
2023-04-27T07:22:08.562Z,100587.56
2023-04-27T07:24:36.321Z,100582.72
2023-04-27T07:27:04.238Z,100586.16
2023-04-27T07:29:32.349Z,100579.31
2023-04-27T07:32:00.801Z,100592.69
2023-04-27T07:34:35.051Z,100587.06
2023-04-27T07:37:10.444Z,100585.88
2023-04-27T07:39:38.193Z,100584.84
2023-04-27T07:42:06.291Z,100588.03
2023-04-27T07:44:33.996Z,100585.22
2023-04-27T07:47:04.264Z,100578.63
2023-04-27T07:49:32.444Z,100583.50
2023-04-27T07:52:00.340Z,100585.56
2023-04-27T07:54:28.150Z,100589.88
2023-04-27T07:56:56.288Z,100594.38
2023-04-27T07:59:24.002Z,100594.09
2023-04-27T08:01:51.894Z,100594.31
2023-04-27T08:04:19.884Z,100589.75
2023-04-27T08:06:48.817Z,100605.59
2023-04-27T08:09:16.605Z,100601.91
2023-04-27T08:11:44.627Z,100591.94
2023-04-27T08:14:13.788Z,100600.03
2023-04-27T08:16:43.218Z,100588.94
2023-04-27T08:19:12.140Z,100597.66
2023-04-27T08:21:40.184Z,100591.03
2023-04-27T08:24:07.912Z,100597.88
2023-04-27T08:26:36.379Z,100589.91
2023-04-27T08:29:15.742Z,100597.47
2023-04-27T08:31:52.950Z,100600.91
2023-04-27T08:34:22.109Z,100594.56
2023-04-27T08:36:50.159Z,100595.19
2023-04-27T08:39:18.384Z,100583.69
2023-04-27T08:41:46.914Z,100573.78
2023-04-27T08:44:14.855Z,100585.66
2023-04-27T08:46:43.004Z,100597.50
2023-04-27T08:49:10.868Z,100572.16
2023-04-27T08:51:38.834Z,100576.09
2023-04-27T08:54:06.467Z,100579.41
2023-04-27T08:56:34.473Z,100584.28
2023-04-27T08:59:04.612Z,100595.56
2023-04-27T09:01:34.759Z,100601.50
2023-04-27T09:04:02.932Z,100597.25
2023-04-27T09:06:33.002Z,100596.03
2023-04-27T09:09:01.699Z,100604.09
2023-04-27T09:11:32.070Z,100606.50
2023-04-27T09:14:02.031Z,100609.66
2023-04-27T09:16:31.376Z,100601.97
2023-04-27T09:19:00.330Z,100597.72
2023-04-27T09:21:31.384Z,100610.56
2023-04-27T09:24:09.644Z,100605.25
2023-04-27T09:26:38.341Z,100595.25
2023-04-27T09:29:06.059Z,100595.91
2023-04-27T09:31:37.446Z,100595.38
2023-04-27T09:34:05.249Z,100584.88
2023-04-27T09:36:33.580Z,100596.66
2023-04-27T09:39:06.854Z,100597.47
2023-04-27T09:41:35.568Z,100607.06
2023-04-27T09:44:03.701Z,100606.41
2023-04-27T09:46:34.512Z,100607.69
2023-04-27T09:49:06.025Z,100607.84
2023-04-27T09:51:34.588Z,100601.56
2023-04-27T09:54:04.596Z,100605.25
2023-04-27T09:56:51.141Z,100599.41
2023-04-27T09:59:37.417Z,100590.31
2023-04-27T10:02:23.024Z,100602.94
2023-04-27T10:05:33.038Z,100598.22
2023-04-27T10:08:03.276Z,100603.25
2023-04-27T10:10:31.296Z,100598.44
2023-04-27T10:13:02.223Z,100596.06
2023-04-27T10:15:30.613Z,100602.50
2023-04-27T10:18:05.722Z,100593.72
2023-04-27T10:20:35.924Z,100589.25
2023-04-27T10:23:04.181Z,100595.44
2023-04-27T10:25:42.097Z,100589.72
2023-04-27T10:28:21.309Z,100588.38
2023-04-27T10:30:49.629Z,100589.78
2023-04-27T10:33:19.968Z,100593.69
2023-04-27T10:35:56.805Z,100597.16
2023-04-27T10:38:31.535Z,100591.34
2023-04-27T10:41:05.458Z,100587.47
2023-04-27T10:43:35.902Z,100589.16
2023-04-27T10:46:14.606Z,100594.63
2023-04-27T10:48:44.008Z,100594.56
2023-04-27T10:51:17.486Z,100597.66
2023-04-27T10:53:45.902Z,100598.13
2023-04-27T10:56:14.185Z,100595.22
2023-04-27T10:58:48.808Z,100597.41
2023-04-27T11:01:27.143Z,100597.66
2023-04-27T11:04:03.677Z,100592.28
2023-04-27T11:06:34.990Z,100594.72
2023-04-27T11:09:02.904Z,100593.41
2023-04-27T11:11:30.667Z,100594.13
2023-04-27T11:13:58.936Z,100604.66
2023-04-27T11:16:26.850Z,100601.34
2023-04-27T11:18:54.944Z,100605.75
2023-04-27T11:21:23.558Z,100602.75
2023-04-27T11:23:51.550Z,100615.28
2023-04-27T11:26:25.887Z,100616.28
2023-04-27T11:29:06.626Z,100605.63
2023-04-27T11:31:49.426Z,100618.66
2023-04-27T11:34:19.764Z,100617.88
2023-04-27T11:39:41.682Z,100620.34
2023-04-27T11:42:25.101Z,100621.16
2023-04-27T11:45:09.134Z,100630.78
2023-04-27T11:47:36.932Z,100626.59
2023-04-27T11:50:08.127Z,100626.28
2023-04-27T11:52:38.103Z,100621.50
2023-04-27T11:55:07.132Z,100616.00
2023-04-27T11:57:36.546Z,100618.88
2023-04-27T12:00:14.164Z,100616.22
2023-04-27T12:02:43.374Z,100608.81
2023-04-27T12:05:13.174Z,100614.53
2023-04-27T12:07:42.271Z,100612.63
2023-04-27T12:10:10.584Z,100611.28
2023-04-27T12:12:38.791Z,100613.84
2023-04-27T12:15:08.550Z,100613.25
2023-04-27T12:17:38.852Z,100614.00
2023-04-27T12:20:07.528Z,100605.41
2023-04-27T12:22:35.353Z,100600.81
2023-04-27T12:25:03.387Z,100606.06
2023-04-27T12:27:31.246Z,100608.00
2023-04-27T12:29:59.637Z,100603.00
2023-04-27T12:32:28.039Z,100612.16
2023-04-27T12:34:56.265Z,100611.59
2023-04-27T12:37:26.218Z,100601.28
2023-04-27T12:39:54.992Z,100614.28
2023-04-27T12:42:24.300Z,100591.56
2023-04-27T12:44:53.126Z,100600.34
2023-04-27T12:47:46.020Z,100601.50
2023-04-27T12:50:10.243Z,100613.81
2023-04-27T12:52:38.263Z,100620.66
2023-04-27T12:55:07.103Z,100623.41
2023-04-27T12:57:37.591Z,100621.97
2023-04-27T13:00:10.059Z,100627.19
2023-04-27T13:02:38.253Z,100628.78
2023-04-27T13:05:07.919Z,100625.16
2023-04-27T13:07:36.011Z,100620.53
2023-04-27T13:10:03.968Z,100620.75
2023-04-27T13:12:32.738Z,100620.00
2023-04-27T13:15:00.515Z,100619.84
2023-04-27T13:17:28.433Z,100626.75
2023-04-27T13:19:56.219Z,100612.41
2023-04-27T13:22:24.128Z,100618.13
2023-04-27T13:24:51.775Z,100613.16
2023-04-27T13:27:22.446Z,100623.25
2023-04-27T13:29:51.225Z,100627.28
2023-04-27T13:32:19.126Z,100625.81
2023-04-27T13:34:46.972Z,100621.75
2023-04-27T13:37:14.957Z,100624.78
2023-04-27T13:39:42.614Z,100618.75
2023-04-27T13:42:10.553Z,100622.28
2023-04-27T13:44:38.299Z,100621.41
2023-04-27T13:47:06.994Z,100622.16
2023-04-27T13:49:34.798Z,100625.97
2023-04-27T13:52:02.958Z,100632.06
2023-04-27T13:54:30.834Z,100631.69
2023-04-27T13:56:58.773Z,100640.50
2023-04-27T13:59:26.557Z,100632.09
2023-04-27T14:01:55.311Z,100644.09
2023-04-27T14:04:23.016Z,100646.56
2023-04-27T14:06:50.985Z,100646.13
2023-04-27T14:09:18.852Z,100642.28
2023-04-27T14:11:56.571Z,100646.31
2023-04-27T14:14:25.442Z,100646.50
2023-04-27T14:16:54.209Z,100645.69
2023-04-27T14:19:22.247Z,100649.91
2023-04-27T14:21:50.363Z,100644.75
2023-04-27T14:24:17.997Z,100642.44
2023-04-27T14:26:47.636Z,100644.16
2023-04-27T14:29:15.928Z,100643.84
2023-04-27T14:31:45.015Z,100645.06
2023-04-27T14:34:14.731Z,100634.41
2023-04-27T14:36:42.836Z,100646.69
2023-04-27T14:39:10.820Z,100644.81
2023-04-27T14:41:38.946Z,100649.63
2023-04-27T14:44:08.201Z,100646.63
2023-04-27T14:46:36.902Z,100645.69
2023-04-27T14:49:04.573Z,100652.63
2023-04-27T14:51:33.300Z,100650.06
2023-04-27T14:54:02.331Z,100654.06
2023-04-27T14:56:30.524Z,100657.66
2023-04-27T14:58:58.185Z,100648.00
2023-04-27T15:01:26.370Z,100655.41
2023-04-27T15:03:56.618Z,100660.66
2023-04-27T15:06:28.219Z,100660.91
2023-04-27T15:08:56.244Z,100652.19
2023-04-27T15:11:24.427Z,100654.59
2023-04-27T15:13:52.074Z,100665.03
2023-04-27T15:16:20.496Z,100655.25
2023-04-27T15:18:48.319Z,100664.06
2023-04-27T15:21:16.298Z,100663.69
2023-04-27T15:23:43.938Z,100668.94
2023-04-27T15:26:11.886Z,100667.13
2023-04-27T15:28:39.509Z,100673.31
2023-04-27T15:31:08.806Z,100671.28
2023-04-27T15:33:36.531Z,100675.63
2023-04-27T15:36:04.654Z,100671.38
2023-04-27T15:38:32.261Z,100657.56
2023-04-27T15:41:00.288Z,100663.78
2023-04-27T15:43:28.052Z,100660.09
2023-04-27T15:45:56.182Z,100663.53
2023-04-27T15:48:23.847Z,100665.47
2023-04-27T15:50:51.766Z,100661.56
2023-04-27T15:53:19.418Z,100673.31
2023-04-27T15:55:47.533Z,100676.91
2023-04-27T15:58:16.413Z,100677.38
2023-04-27T16:00:44.408Z,100677.84
2023-04-27T16:03:14.278Z,100677.59
2023-04-27T16:05:42.520Z,100686.94
2023-04-27T16:08:10.148Z,100681.69
2023-04-27T16:10:38.234Z,100683.22
2023-04-27T16:13:05.995Z,100694.88
2023-04-27T16:15:33.979Z,100687.13
2023-04-27T16:18:02.303Z,100688.06
2023-04-27T16:20:32.289Z,100692.44
2023-04-27T16:23:00.717Z,100695.94
2023-04-27T16:25:28.728Z,100694.31
2023-04-27T16:27:58.617Z,100698.94
2023-04-27T16:30:26.681Z,100698.59
2023-04-27T16:32:54.528Z,100695.66
2023-04-27T16:35:22.587Z,100703.75
2023-04-27T16:37:50.710Z,100708.97
2023-04-27T16:40:18.684Z,100708.31
2023-04-27T16:42:46.784Z,100711.75
2023-04-27T16:45:14.774Z,100705.09
2023-04-27T16:47:42.655Z,100701.16
2023-04-27T16:50:10.999Z,100709.72
2023-04-27T16:52:38.631Z,100717.50
2023-04-27T16:55:07.326Z,100717.44
2023-04-27T16:57:35.366Z,100724.81
2023-04-27T17:00:06.135Z,100725.78
2023-04-27T17:02:34.070Z,100719.63
2023-04-27T17:05:02.861Z,100718.34
2023-04-27T17:07:32.814Z,100716.63
2023-04-27T17:10:00.978Z,100714.81
2023-04-27T17:12:28.684Z,100721.91
2023-04-27T17:14:56.817Z,100717.81
2023-04-27T17:17:24.516Z,100723.41
2023-04-27T17:19:52.467Z,100721.88
2023-04-27T17:22:20.220Z,100723.91
2023-04-27T17:24:48.231Z,100727.53
2023-04-27T17:27:16.149Z,100726.63
2023-04-27T17:29:44.170Z,100735.47
2023-04-27T17:32:11.970Z,100736.59
2023-04-27T17:34:41.706Z,100734.69
2023-04-27T17:37:10.772Z,100731.91
2023-04-27T17:39:38.858Z,100735.50
2023-04-27T17:42:11.895Z,100738.91
2023-04-27T17:44:42.204Z,100739.44
2023-04-27T17:47:10.136Z,100735.16
2023-04-27T17:49:38.081Z,100747.69
2023-04-27T17:52:06.193Z,100732.50
2023-04-27T17:54:34.121Z,100736.81
2023-04-27T17:57:02.096Z,100737.94
2023-04-27T17:59:30.169Z,100734.38
2023-04-27T18:01:58.745Z,100744.88
2023-04-27T18:04:26.891Z,100739.97
2023-04-27T18:06:54.708Z,100741.97
2023-04-27T18:09:23.592Z,100744.09
2023-04-27T18:11:51.321Z,100753.81
2023-04-27T18:14:19.304Z,100760.19
2023-04-27T18:16:46.991Z,100767.41
2023-04-27T18:19:15.160Z,100760.78
2023-04-27T18:21:43.087Z,100764.59
2023-04-27T18:24:11.107Z,100764.81
2023-04-27T18:26:38.804Z,100770.19
2023-04-27T18:29:06.834Z,100777.34
2023-04-27T18:31:35.076Z,100776.66
2023-04-27T18:34:03.066Z,100772.38
2023-04-27T18:36:31.495Z,100777.66
2023-04-27T18:38:59.734Z,100782.97
2023-04-27T18:41:27.515Z,100778.69
2023-04-27T18:44:02.274Z,100781.28
2023-04-27T18:46:30.073Z,100780.41
2023-04-27T18:48:58.042Z,100780.41
2023-04-27T18:51:26.390Z,100777.75
2023-04-27T18:53:54.655Z,100776.78
2023-04-27T18:56:22.791Z,100779.34
2023-04-27T18:58:51.131Z,100778.38
2023-04-27T19:01:28.180Z,100778.31
2023-04-27T19:03:56.803Z,100780.09
2023-04-27T19:06:24.970Z,100781.09
2023-04-27T19:08:53.076Z,100783.00
2023-04-27T19:11:22.448Z,100778.78
2023-04-27T19:13:51.152Z,100777.97
2023-04-27T19:16:18.877Z,100782.34
2023-04-27T19:18:47.006Z,100782.47
2023-04-27T19:21:14.768Z,100785.13
2023-04-27T19:23:44.758Z,100775.63
2023-04-27T19:26:13.948Z,100777.38
2023-04-27T19:28:42.511Z,100783.47
2023-04-27T19:31:10.444Z,100781.81
2023-04-27T19:33:46.576Z,100788.75
2023-04-27T19:36:14.928Z,100780.13
2023-04-27T19:38:42.843Z,100778.47
2023-04-27T19:41:10.710Z,100783.66
2023-04-27T19:43:38.632Z,100787.13
2023-04-27T19:46:06.347Z,100784.59
2023-04-27T19:48:34.482Z,100782.00
2023-04-27T19:51:02.113Z,100782.03
2023-04-27T19:53:30.260Z,100787.22
2023-04-27T19:56:00.104Z,100782.06
2023-04-27T19:58:28.789Z,100785.53
2023-04-27T20:00:56.487Z,100785.53
2023-04-27T20:03:24.601Z,100789.88
2023-04-27T20:05:52.797Z,100784.72
2023-04-27T20:08:21.008Z,100790.75
2023-04-27T20:10:48.679Z,100789.88
2023-04-27T20:13:16.575Z,100794.22
2023-04-27T20:15:44.512Z,100794.22
2023-04-27T20:18:12.974Z,100795.91
2023-04-27T20:20:42.024Z,100798.50
2023-04-27T20:23:10.046Z,100801.06
2023-04-27T20:25:38.082Z,100804.53
2023-04-27T20:28:06.003Z,100804.50
2023-04-27T20:30:33.653Z,100801.09
2023-04-27T20:33:03.731Z,100807.09
2023-04-27T20:35:31.482Z,100803.59
2023-04-27T20:38:00.490Z,100807.88
2023-04-27T20:40:28.258Z,100817.31
2023-04-27T20:42:56.445Z,100809.53
2023-04-27T20:45:25.471Z,100813.00
2023-04-27T20:47:53.517Z,100810.44
2023-04-27T20:50:21.336Z,100815.50
2023-04-27T20:52:49.323Z,100811.13
2023-04-27T20:55:17.079Z,100817.97
2023-04-27T20:57:44.978Z,100821.41
2023-04-27T21:00:15.347Z,100811.03
2023-04-27T21:02:43.387Z,100813.59
2023-04-27T21:05:11.598Z,100814.44
2023-04-27T21:07:39.596Z,100824.72
2023-04-27T21:10:08.085Z,100824.66
2023-04-27T21:12:36.066Z,100827.22
2023-04-27T21:15:03.942Z,100825.47
2023-04-27T21:17:31.963Z,100829.78
2023-04-27T21:19:59.599Z,100827.19
2023-04-27T21:22:27.561Z,100828.00
2023-04-27T21:24:55.238Z,100824.50
2023-04-27T21:27:23.296Z,100830.53
2023-04-27T21:29:50.977Z,100823.66
2023-04-27T21:32:18.914Z,100839.13
2023-04-27T21:34:46.650Z,100828.75
2023-04-27T21:37:14.625Z,100833.91
2023-04-27T21:39:42.347Z,100837.44
2023-04-27T21:42:10.450Z,100833.09
2023-04-27T21:44:38.399Z,100840.00
2023-04-27T21:47:06.897Z,100838.31
2023-04-27T21:49:34.670Z,100840.91
2023-04-27T21:52:02.573Z,100838.44
2023-04-27T21:54:30.949Z,100848.72
2023-04-27T21:56:58.819Z,100852.19
2023-04-27T21:59:26.497Z,100860.84
2023-04-27T22:01:56.289Z,100853.19
2023-04-27T22:04:25.108Z,100852.31
2023-04-27T22:06:53.365Z,100860.94
2023-04-27T22:09:21.231Z,100859.22
2023-04-27T22:11:49.138Z,100861.75
2023-04-27T22:14:17.324Z,100853.97
2023-04-27T22:16:45.426Z,100861.75
2023-04-27T22:19:13.134Z,100858.28
2023-04-27T22:21:40.997Z,100860.81
2023-04-27T22:24:08.978Z,100861.63
2023-04-27T22:26:36.922Z,100857.25
2023-04-27T22:29:04.569Z,100858.94
2023-04-27T22:31:32.700Z,100855.50
2023-04-27T22:34:01.903Z,100864.03
2023-04-27T22:36:29.869Z,100857.97
2023-04-27T22:38:57.599Z,100859.72
2023-04-27T22:41:25.528Z,100862.31
2023-04-27T22:43:53.612Z,100864.09
2023-04-27T22:46:23.250Z,100861.47
2023-04-27T22:48:52.997Z,100862.38
2023-04-27T22:51:21.844Z,100861.44
2023-04-27T22:53:49.707Z,100858.84
2023-04-27T22:56:17.697Z,100861.47
2023-04-27T22:58:46.642Z,100864.06
2023-04-27T23:01:14.634Z,100860.59
2023-04-27T23:03:42.465Z,100853.72
2023-04-27T23:06:16.520Z,100869.31
2023-04-27T23:08:47.445Z,100868.38
2023-04-27T23:11:15.564Z,100866.59
2023-04-27T23:13:44.043Z,100864.91
2023-04-27T23:16:12.108Z,100874.47
2023-04-27T23:18:39.787Z,100870.19
2023-04-27T23:21:07.680Z,100867.72
2023-04-27T23:23:35.966Z,100876.44
2023-04-27T23:26:04.125Z,100870.47
2023-04-27T23:28:31.809Z,100873.09
2023-04-27T23:30:59.737Z,100870.53
2023-04-27T23:33:27.417Z,100873.97
2023-04-27T23:35:56.268Z,100872.28
2023-04-27T23:38:23.993Z,100871.44
2023-04-27T23:40:52.116Z,100868.06
2023-04-27T23:43:19.756Z,100873.47
2023-04-27T23:45:52.708Z,100867.41
2023-04-27T23:48:20.704Z,100858.00
2023-04-27T23:50:48.785Z,100863.13
2023-04-27T23:53:16.759Z,100872.59
2023-04-27T23:55:44.784Z,100859.72
2023-04-27T23:58:12.476Z,100860.63
